createdAt,value
2022-11-21T00:00:45.736Z,100336.00
2022-11-21T00:03:12.434Z,100336.31
2022-11-21T00:05:43.850Z,100335.63
2022-11-21T00:08:11.570Z,100335.38
2022-11-21T00:10:39.634Z,100340.63
2022-11-21T00:13:07.117Z,100330.25
2022-11-21T00:15:35.640Z,100333.13
2022-11-21T00:18:03.195Z,100330.25
2022-11-21T00:20:29.902Z,100331.28
2022-11-21T00:22:56.467Z,100322.59
2022-11-21T00:25:23.053Z,100318.06
2022-11-21T00:27:49.628Z,100309.00
2022-11-21T00:30:16.144Z,100302.28
2022-11-21T00:32:42.671Z,100313.59
2022-11-21T00:35:09.333Z,100306.81
2022-11-21T00:37:35.933Z,100306.75
2022-11-21T00:40:02.955Z,100307.88
2022-11-21T00:42:29.516Z,100307.53
2022-11-21T00:44:56.051Z,100312.06
2022-11-21T00:47:22.479Z,100309.81
2022-11-21T00:49:49.095Z,100301.50
2022-11-21T00:52:16.844Z,100304.53
2022-11-21T00:54:43.644Z,100306.81
2022-11-21T00:57:10.343Z,100299.31
2022-11-21T00:59:36.912Z,100301.91
2022-11-21T01:02:03.328Z,100302.66
2022-11-21T01:04:33.855Z,100301.53
2022-11-21T01:07:01.021Z,100300.63
2022-11-21T01:09:28.609Z,100298.53
2022-11-21T01:11:56.188Z,100290.81
2022-11-21T01:14:23.631Z,100297.97
2022-11-21T01:16:52.830Z,100296.22
2022-11-21T01:19:19.387Z,100306.50
2022-11-21T01:21:45.835Z,100298.41
2022-11-21T01:24:12.602Z,100309.53
2022-11-21T01:26:39.307Z,100315.91
2022-11-21T01:29:06.845Z,100308.72
2022-11-21T01:31:33.306Z,100302.56
2022-11-21T01:34:01.115Z,100307.63
2022-11-21T01:36:30.245Z,100313.13
2022-11-21T01:38:59.868Z,100307.28
2022-11-21T01:41:33.440Z,100310.84
2022-11-21T01:44:01.491Z,100305.97
2022-11-21T01:46:28.016Z,100304.06
2022-11-21T01:49:03.183Z,100313.50
2022-11-21T01:51:47.981Z,100311.53
2022-11-21T01:54:34.868Z,100314.69
2022-11-21T01:57:07.810Z,100311.72
2022-11-21T01:59:39.149Z,100322.31
2022-11-21T02:02:08.103Z,100324.50
2022-11-21T02:04:35.798Z,100336.56
2022-11-21T02:07:04.743Z,100330.19
2022-11-21T02:09:32.931Z,100328.19
2022-11-21T02:12:03.039Z,100327.03
2022-11-21T02:14:29.846Z,100326.22
2022-11-21T02:17:00.770Z,100325.97
2022-11-21T02:19:41.533Z,100322.75
2022-11-21T02:22:14.448Z,100314.34
2022-11-21T02:24:47.532Z,100319.94
2022-11-21T02:27:15.023Z,100321.84
2022-11-21T02:29:41.648Z,100310.53
2022-11-21T02:32:08.043Z,100325.94
2022-11-21T02:34:34.622Z,100316.50
2022-11-21T02:37:02.113Z,100315.69
2022-11-21T02:39:34.320Z,100310.44
2022-11-21T02:42:17.079Z,100311.84
2022-11-21T02:44:56.269Z,100315.28
2022-11-21T02:47:23.140Z,100314.16
2022-11-21T02:49:56.093Z,100311.13
2022-11-21T02:52:22.808Z,100325.41
2022-11-21T02:54:49.437Z,100320.53
2022-11-21T02:57:15.982Z,100323.91
2022-11-21T02:59:42.411Z,100317.91
2022-11-21T03:02:08.923Z,100312.47
2022-11-21T03:04:35.588Z,100318.00
2022-11-21T03:07:02.070Z,100325.00
2022-11-21T03:09:28.703Z,100325.22
2022-11-21T03:11:55.340Z,100321.78
2022-11-21T03:14:21.894Z,100320.56
2022-11-21T03:16:48.295Z,100322.69
2022-11-21T03:19:14.740Z,100327.13
2022-11-21T03:21:41.296Z,100322.97
2022-11-21T03:24:08.036Z,100319.19
2022-11-21T03:26:34.476Z,100321.00
2022-11-21T03:29:00.996Z,100315.84
2022-11-21T03:31:27.573Z,100328.22
2022-11-21T03:33:54.121Z,100327.19
2022-11-21T03:36:20.649Z,100323.50
2022-11-21T03:38:47.078Z,100339.56
2022-11-21T03:41:31.580Z,100328.56
2022-11-21T03:44:09.833Z,100330.09
2022-11-21T03:46:41.049Z,100331.50
2022-11-21T03:49:08.117Z,100336.88
2022-11-21T03:51:35.077Z,100331.03
2022-11-21T03:54:01.838Z,100332.84
2022-11-21T03:56:28.474Z,100329.31
2022-11-21T03:58:55.091Z,100334.88
2022-11-21T04:01:21.963Z,100333.38
2022-11-21T04:03:48.885Z,100330.22
2022-11-21T04:06:18.537Z,100323.94
2022-11-21T04:08:45.119Z,100331.91
2022-11-21T04:11:11.643Z,100330.25
2022-11-21T04:13:38.415Z,100328.06
2022-11-21T04:16:05.056Z,100322.75
2022-11-21T04:18:31.835Z,100314.81
2022-11-21T04:21:04.167Z,100314.00
2022-11-21T04:23:30.724Z,100314.69
2022-11-21T04:25:57.142Z,100313.88
2022-11-21T04:28:23.646Z,100320.75
2022-11-21T04:30:52.457Z,100317.06
2022-11-21T04:33:21.294Z,100316.94
2022-11-21T04:35:47.812Z,100316.38
2022-11-21T04:38:14.737Z,100313.81
2022-11-21T04:40:43.243Z,100308.53
2022-11-21T04:43:09.824Z,100312.41
2022-11-21T04:45:36.277Z,100306.19
2022-11-21T04:48:02.822Z,100312.53
2022-11-21T04:50:29.308Z,100316.78
2022-11-21T04:52:57.249Z,100312.91
2022-11-21T04:55:27.527Z,100313.28
2022-11-21T04:57:54.081Z,100322.47
2022-11-21T05:00:24.437Z,100323.97
2022-11-21T05:02:51.192Z,100334.56
2022-11-21T05:05:17.666Z,100327.81
2022-11-21T05:07:44.317Z,100325.88
2022-11-21T05:10:11.026Z,100330.44
2022-11-21T05:12:56.157Z,100321.34
2022-11-21T05:15:24.880Z,100318.59
2022-11-21T05:17:51.991Z,100325.09
2022-11-21T05:20:19.126Z,100318.59
2022-11-21T05:22:49.891Z,100319.41
2022-11-21T05:25:16.771Z,100317.19
2022-11-21T05:27:43.248Z,100323.56
2022-11-21T05:30:11.057Z,100315.59
2022-11-21T05:32:37.830Z,100318.88
2022-11-21T05:35:04.442Z,100321.13
2022-11-21T05:37:30.885Z,100318.47
2022-11-21T05:39:57.381Z,100315.88
2022-11-21T05:42:43.757Z,100312.34
2022-11-21T05:45:10.434Z,100308.94
2022-11-21T05:47:37.163Z,100302.72
2022-11-21T05:50:04.386Z,100309.13
2022-11-21T05:52:30.876Z,100310.84
2022-11-21T05:54:57.475Z,100314.75
2022-11-21T05:57:24.171Z,100313.75
2022-11-21T05:59:50.817Z,100322.63
2022-11-21T06:02:35.810Z,100313.84
2022-11-21T06:05:02.278Z,100309.84
2022-11-21T06:07:28.790Z,100313.25
2022-11-21T06:09:55.497Z,100311.38
2022-11-21T06:12:25.415Z,100305.34
2022-11-21T06:14:52.447Z,100312.88
2022-11-21T06:17:19.220Z,100323.50
2022-11-21T06:19:46.013Z,100322.31
2022-11-21T06:22:12.467Z,100321.75
2022-11-21T06:24:38.857Z,100325.50
2022-11-21T06:27:05.512Z,100326.22
2022-11-21T06:29:32.148Z,100323.34
2022-11-21T06:31:58.663Z,100310.66
2022-11-21T06:34:28.242Z,100306.47
2022-11-21T06:36:54.904Z,100305.91
2022-11-21T06:39:21.407Z,100312.09
2022-11-21T06:41:51.260Z,100310.53
2022-11-21T06:44:21.074Z,100297.66
2022-11-21T06:46:51.240Z,100278.91
2022-11-21T06:49:17.922Z,100285.41
2022-11-21T06:51:44.740Z,100294.09
2022-11-21T06:54:16.339Z,100291.59
2022-11-21T06:56:43.713Z,100294.59
2022-11-21T06:59:10.327Z,100299.63
2022-11-21T07:01:37.033Z,100302.38
2022-11-21T07:04:03.715Z,100308.84
2022-11-21T07:06:30.193Z,100313.31
2022-11-21T07:11:43.692Z,100317.00
2022-11-21T07:14:10.226Z,100325.72
2022-11-21T07:16:37.385Z,100331.38
2022-11-21T07:19:03.833Z,100330.69
2022-11-21T07:21:30.270Z,100338.16
2022-11-21T07:23:56.737Z,100334.69
2022-11-21T07:26:23.178Z,100331.44
2022-11-21T07:28:51.217Z,100326.13
2022-11-21T07:31:17.880Z,100328.34
2022-11-21T07:33:45.615Z,100329.22
2022-11-21T07:36:12.652Z,100310.03
2022-11-21T07:38:40.886Z,100308.31
2022-11-21T07:41:07.470Z,100305.88
2022-11-21T07:43:33.894Z,100312.81
2022-11-21T07:46:00.564Z,100312.88
2022-11-21T07:48:27.029Z,100292.66
2022-11-21T07:50:53.664Z,100312.84
2022-11-21T07:53:20.090Z,100318.13
2022-11-21T07:55:46.551Z,100316.22
2022-11-21T07:58:15.909Z,100318.47
2022-11-21T08:00:43.051Z,100320.03
2022-11-21T08:03:12.156Z,100313.84
2022-11-21T08:05:40.454Z,100315.38
2022-11-21T08:08:07.242Z,100317.28
2022-11-21T08:10:36.568Z,100319.81
2022-11-21T08:13:03.020Z,100312.03
2022-11-21T08:15:29.442Z,100316.59
2022-11-21T08:17:56.134Z,100315.47
2022-11-21T08:20:22.869Z,100325.06
2022-11-21T08:22:49.847Z,100322.59
2022-11-21T08:25:16.558Z,100325.63
2022-11-21T08:27:44.374Z,100328.44
2022-11-21T08:30:14.823Z,100325.63
2022-11-21T08:32:52.664Z,100323.19
2022-11-21T08:35:19.229Z,100321.41
2022-11-21T08:37:45.773Z,100319.06
2022-11-21T08:40:12.415Z,100315.03
2022-11-21T08:42:39.024Z,100328.28
2022-11-21T08:45:06.598Z,100327.59
2022-11-21T08:47:34.555Z,100329.78
2022-11-21T08:50:07.336Z,100326.53
2022-11-21T08:52:35.473Z,100308.53
2022-11-21T08:55:02.525Z,100322.50
2022-11-21T08:57:29.627Z,100318.78
2022-11-21T08:59:56.313Z,100313.91
2022-11-21T09:02:22.733Z,100335.25
2022-11-21T09:04:49.207Z,100333.09
2022-11-21T09:07:15.841Z,100332.50
2022-11-21T09:09:42.829Z,100325.59
2022-11-21T09:12:09.712Z,100321.84
2022-11-21T09:14:54.899Z,100320.84
2022-11-21T09:17:42.360Z,100317.97
2022-11-21T09:20:09.348Z,100316.56
2022-11-21T09:22:35.843Z,100325.31
2022-11-21T09:25:02.321Z,100320.88
2022-11-21T09:27:30.418Z,100313.06
2022-11-21T09:29:56.943Z,100317.22
2022-11-21T09:32:23.892Z,100310.03
2022-11-21T09:34:50.764Z,100305.13
2022-11-21T09:37:17.458Z,100303.31
2022-11-21T09:39:43.926Z,100296.56
2022-11-21T09:42:24.063Z,100293.22
2022-11-21T09:44:50.617Z,100303.03
2022-11-21T09:47:31.495Z,100294.00
2022-11-21T09:50:01.065Z,100303.06
2022-11-21T09:52:36.051Z,100294.34
2022-11-21T09:55:06.811Z,100294.75
2022-11-21T09:57:35.733Z,100294.72
2022-11-21T10:00:04.917Z,100293.94
2022-11-21T10:02:31.402Z,100291.91
2022-11-21T10:05:00.737Z,100298.22
2022-11-21T10:07:29.656Z,100303.28
2022-11-21T10:10:14.950Z,100297.63
2022-11-21T10:13:03.220Z,100296.56
2022-11-21T10:15:55.977Z,100302.75
2022-11-21T10:18:39.088Z,100288.03
2022-11-21T10:21:31.314Z,100293.81
2022-11-21T10:24:10.447Z,100296.22
2022-11-21T10:27:06.850Z,100294.56
2022-11-21T10:29:37.043Z,100283.13
2022-11-21T10:32:21.048Z,100289.56
2022-11-21T10:34:49.483Z,100290.72
2022-11-21T10:37:26.181Z,100282.47
2022-11-21T10:39:54.617Z,100277.28
2022-11-21T10:42:35.784Z,100281.69
2022-11-21T10:45:19.808Z,100277.72
2022-11-21T10:47:48.785Z,100274.78
2022-11-21T10:50:29.117Z,100271.69
2022-11-21T10:53:24.750Z,100263.50
2022-11-21T10:56:13.889Z,100253.81
2022-11-21T10:58:43.375Z,100250.44
2022-11-21T11:01:23.274Z,100250.22
2022-11-21T11:04:45.610Z,100249.06
2022-11-21T11:07:00.131Z,100241.00
2022-11-21T11:09:34.528Z,100232.22
2022-11-21T11:12:48.478Z,100231.09
2022-11-21T11:15:26.153Z,100216.50
2022-11-21T11:17:57.833Z,100209.63
2022-11-21T11:20:36.521Z,100209.72
2022-11-21T11:23:16.148Z,100211.06
2022-11-21T11:26:15.066Z,100204.06
2022-11-21T11:28:41.592Z,100191.03
2022-11-21T11:31:08.346Z,100193.16
2022-11-21T11:33:50.986Z,100185.72
2022-11-21T11:36:41.301Z,100182.00
2022-11-21T11:39:19.503Z,100176.31
2022-11-21T11:42:23.573Z,100170.59
2022-11-21T11:45:26.795Z,100167.22
2022-11-21T11:47:59.321Z,100160.47
2022-11-21T11:50:37.275Z,100161.16
2022-11-21T11:53:31.815Z,100158.47
2022-11-21T11:56:01.977Z,100163.03
2022-11-21T11:58:45.344Z,100151.72
2022-11-21T12:01:14.738Z,100151.25
2022-11-21T12:04:22.288Z,100139.56
2022-11-21T12:07:52.803Z,100136.66
2022-11-21T12:09:49.958Z,100132.59
2022-11-21T12:12:16.472Z,100128.16
2022-11-21T12:15:13.809Z,100125.88
2022-11-21T12:17:47.106Z,100114.16
2022-11-21T12:20:45.158Z,100108.91
2022-11-21T12:23:12.338Z,100117.88
2022-11-21T12:25:47.408Z,100114.34
2022-11-21T12:28:54.425Z,100106.22
2022-11-21T12:31:26.370Z,100100.59
2022-11-21T12:34:02.543Z,100102.78
2022-11-21T12:36:40.604Z,100100.06
2022-11-21T12:39:25.667Z,100094.53
2022-11-21T12:42:21.043Z,100095.84
2022-11-21T12:45:20.947Z,100096.16
2022-11-21T12:48:18.626Z,100098.22
2022-11-21T12:51:06.870Z,100084.97
2022-11-21T12:54:03.370Z,100078.28
2022-11-21T12:56:38.609Z,100078.31
2022-11-21T12:59:05.709Z,100078.22
2022-11-21T13:01:58.459Z,100067.66
2022-11-21T13:04:28.353Z,100064.88
2022-11-21T13:06:56.169Z,100057.16
2022-11-21T13:09:23.290Z,100059.06
2022-11-21T13:12:02.559Z,100053.78
2022-11-21T13:14:36.551Z,100052.56
2022-11-21T13:17:06.726Z,100055.09
2022-11-21T13:19:45.301Z,100060.53
2022-11-21T13:22:36.794Z,100067.88
2022-11-21T13:25:13.660Z,100064.47
2022-11-21T13:27:40.720Z,100063.91
2022-11-21T13:30:07.755Z,100057.97
2022-11-21T13:32:38.340Z,100053.69
2022-11-21T13:35:19.666Z,100052.44
2022-11-21T13:37:52.395Z,100056.22
2022-11-21T13:40:27.917Z,100044.06
2022-11-21T13:43:33.296Z,100046.44
2022-11-21T13:46:00.862Z,100043.16
2022-11-21T13:48:36.830Z,100041.84
2022-11-21T13:51:09.835Z,100042.53
2022-11-21T13:53:45.959Z,100041.25
2022-11-21T13:56:37.321Z,100037.22
2022-11-21T13:59:16.013Z,100042.66
2022-11-21T14:01:54.603Z,100030.63
2022-11-21T14:04:42.570Z,100025.88
2022-11-21T14:07:30.094Z,100020.94
2022-11-21T14:10:01.773Z,100018.16
2022-11-21T14:12:38.439Z,100009.72
2022-11-21T14:15:32.395Z,100008.53
2022-11-21T14:17:59.795Z,100011.72
2022-11-21T14:20:28.616Z,100002.63
2022-11-21T14:23:01.363Z,100003.97
2022-11-21T14:25:35.409Z,100000.69
2022-11-21T14:28:02.583Z,100006.63
2022-11-21T14:30:40.254Z,100006.00
2022-11-21T14:33:29.517Z,100009.59
2022-11-21T14:35:58.058Z,100009.22
2022-11-21T14:38:24.898Z,100000.94
2022-11-21T14:40:51.901Z,100007.44
2022-11-21T14:43:36.629Z,100008.03
2022-11-21T14:46:03.151Z,100004.94
2022-11-21T14:48:30.492Z,99996.31
2022-11-21T14:50:58.431Z,99983.88
2022-11-21T14:53:25.804Z,99978.72
2022-11-21T14:55:56.839Z,99971.63
2022-11-21T14:58:26.514Z,99968.66
2022-11-21T15:01:20.216Z,99957.66
2022-11-21T15:03:56.925Z,99948.22
2022-11-21T15:06:24.237Z,99947.09
2022-11-21T15:12:04.768Z,99938.94
2022-11-21T15:15:01.857Z,99936.06
2022-11-21T15:17:28.576Z,99933.09
2022-11-21T15:20:12.309Z,99925.63
2022-11-21T15:22:41.433Z,99924.88
2022-11-21T15:25:22.281Z,99919.63
2022-11-21T15:27:53.016Z,99906.88
2022-11-21T15:30:21.986Z,99918.94
2022-11-21T15:33:01.655Z,99916.31
2022-11-21T15:35:32.122Z,99918.59
2022-11-21T15:37:58.809Z,99907.00
2022-11-21T15:40:25.328Z,99897.22
2022-11-21T15:42:51.955Z,99894.25
2022-11-21T15:45:27.583Z,99892.38
2022-11-21T15:47:55.518Z,99902.91
2022-11-21T15:50:25.097Z,99894.66
2022-11-21T15:52:52.454Z,99889.44
2022-11-21T15:55:22.703Z,99892.09
2022-11-21T15:57:49.251Z,99893.34
2022-11-21T16:00:17.222Z,99886.56
2022-11-21T16:02:43.617Z,99898.94
2022-11-21T16:05:12.606Z,99897.13
2022-11-21T16:07:39.272Z,99902.41
2022-11-21T16:10:07.130Z,99892.22
2022-11-21T16:12:35.513Z,99893.75
2022-11-21T16:15:02.425Z,99890.72
2022-11-21T16:17:28.863Z,99885.44
2022-11-21T16:19:55.316Z,99881.66
2022-11-21T16:22:21.813Z,99883.94
2022-11-21T16:24:49.472Z,99879.03
2022-11-21T16:27:16.432Z,99874.78
2022-11-21T16:29:42.881Z,99874.09
2022-11-21T16:32:09.289Z,99866.47
2022-11-21T16:34:36.055Z,99867.97
2022-11-21T16:37:07.150Z,99865.03
2022-11-21T16:39:34.473Z,99873.97
2022-11-21T16:42:01.216Z,99869.94
2022-11-21T16:44:30.140Z,99865.84
2022-11-21T16:46:56.736Z,99867.34
2022-11-21T16:49:24.638Z,99851.09
2022-11-21T16:51:51.050Z,99846.28
2022-11-21T16:54:17.559Z,99852.31
2022-11-21T16:56:44.237Z,99837.22
2022-11-21T16:59:10.870Z,99840.25
2022-11-21T17:01:37.377Z,99834.19
2022-11-21T17:04:03.936Z,99825.56
2022-11-21T17:06:31.194Z,99831.22
2022-11-21T17:09:00.065Z,99830.38
2022-11-21T17:11:29.298Z,99834.28
2022-11-21T17:13:58.876Z,99837.28
2022-11-21T17:16:25.351Z,99830.09
2022-11-21T17:18:56.149Z,99820.72
2022-11-21T17:21:23.209Z,99812.44
2022-11-21T17:23:50.473Z,99804.53
2022-11-21T17:26:19.299Z,99803.38
2022-11-21T17:28:54.526Z,99801.09
2022-11-21T17:31:21.521Z,99792.38
2022-11-21T17:33:51.688Z,99781.44
2022-11-21T17:36:22.238Z,99784.44
2022-11-21T17:38:49.233Z,99778.44
2022-11-21T17:41:17.850Z,99780.22
2022-11-21T17:43:44.952Z,99770.03
2022-11-21T17:46:19.073Z,99772.41
2022-11-21T17:48:51.460Z,99760.97
2022-11-21T17:51:23.812Z,99762.63
2022-11-21T17:53:51.538Z,99749.09
2022-11-21T17:56:20.239Z,99746.78
2022-11-21T17:58:47.233Z,99740.34
2022-11-21T18:01:18.873Z,99739.03
2022-11-21T18:03:47.094Z,99732.22
2022-11-21T18:06:15.818Z,99721.91
2022-11-21T18:08:44.223Z,99723.13
2022-11-21T18:11:12.059Z,99715.22
2022-11-21T18:13:39.236Z,99715.38
2022-11-21T18:16:10.429Z,99718.28
2022-11-21T18:18:37.384Z,99710.06
2022-11-21T18:21:07.574Z,99701.78
2022-11-21T18:23:34.164Z,99700.22
2022-11-21T18:26:04.907Z,99682.19
2022-11-21T18:28:32.116Z,99685.16
2022-11-21T18:31:08.736Z,99691.22
2022-11-21T18:33:36.284Z,99688.19
2022-11-21T18:36:04.042Z,99680.63
2022-11-21T18:38:54.850Z,99688.22
2022-11-21T18:41:34.070Z,99680.28
2022-11-21T18:44:02.784Z,99665.91
2022-11-21T18:46:30.972Z,99657.47
2022-11-21T18:49:04.632Z,99652.44
2022-11-21T18:51:32.850Z,99652.88
2022-11-21T18:54:08.384Z,99650.56
2022-11-21T18:56:36.315Z,99643.06
2022-11-21T18:59:04.605Z,99645.38
2022-11-21T19:01:33.082Z,99657.38
2022-11-21T19:03:59.753Z,99648.41
2022-11-21T19:06:27.371Z,99646.78
2022-11-21T19:08:55.714Z,99634.75
2022-11-21T19:11:26.975Z,99636.34
2022-11-21T19:13:54.822Z,99638.84
2022-11-21T19:16:26.289Z,99645.19
2022-11-21T19:21:41.454Z,99664.13
2022-11-21T19:24:13.006Z,99664.22
2022-11-21T19:26:39.569Z,99671.72
2022-11-21T19:29:06.191Z,99669.44
2022-11-21T19:31:32.634Z,99661.19
2022-11-21T19:33:59.049Z,99660.38
2022-11-21T19:36:25.575Z,99653.69
2022-11-21T19:38:52.114Z,99660.19
2022-11-21T19:41:25.356Z,99655.91
2022-11-21T19:43:53.548Z,99656.97
2022-11-21T19:46:28.022Z,99655.16
2022-11-21T19:48:55.771Z,99654.88
2022-11-21T19:51:25.126Z,99662.31
2022-11-21T19:53:51.583Z,99650.75
2022-11-21T19:56:20.206Z,99649.28
2022-11-21T19:58:47.598Z,99659.66
2022-11-21T20:01:16.320Z,99658.06
2022-11-21T20:03:46.026Z,99654.41
2022-11-21T20:06:23.290Z,99651.75
2022-11-21T20:08:51.577Z,99658.53
2022-11-21T20:11:18.091Z,99664.44
2022-11-21T20:13:45.953Z,99665.22
2022-11-21T20:16:22.153Z,99657.34
2022-11-21T20:18:49.029Z,99661.53
2022-11-21T20:21:16.295Z,99664.13
2022-11-21T20:23:42.949Z,99651.38
2022-11-21T20:26:09.759Z,99652.81
2022-11-21T20:28:36.949Z,99654.44
2022-11-21T20:31:08.606Z,99649.56
2022-11-21T20:33:42.500Z,99636.75
2022-11-21T20:36:19.361Z,99630.56
2022-11-21T20:39:06.839Z,99638.13
2022-11-21T20:41:35.728Z,99639.91
2022-11-21T20:46:51.746Z,99658.59
2022-11-21T20:49:18.189Z,99656.31
2022-11-21T20:54:31.491Z,99647.56
2022-11-21T20:56:58.182Z,99643.63
2022-11-21T20:59:25.994Z,99637.84
2022-11-21T21:01:52.529Z,99621.47
2022-11-21T21:04:19.135Z,99607.72
2022-11-21T21:06:45.607Z,99615.16
2022-11-21T21:09:12.235Z,99613.94
2022-11-21T21:11:52.076Z,99611.66
2022-11-21T21:14:19.893Z,99612.34
2022-11-21T21:16:46.838Z,99617.28
2022-11-21T21:19:13.454Z,99605.75
2022-11-21T21:21:41.648Z,99616.38
2022-11-21T21:24:09.802Z,99622.16
2022-11-21T21:26:42.977Z,99631.03
2022-11-21T21:29:16.108Z,99619.53
2022-11-21T21:31:50.056Z,99624.00
2022-11-21T21:34:17.782Z,99631.31
2022-11-21T21:36:44.459Z,99631.81
2022-11-21T21:39:10.922Z,99631.97
2022-11-21T21:41:40.008Z,99626.25
2022-11-21T21:44:07.109Z,99622.53
2022-11-21T21:46:33.613Z,99628.56
2022-11-21T21:49:00.057Z,99611.47
2022-11-21T21:51:28.497Z,99612.59
2022-11-21T21:53:57.241Z,99609.38
2022-11-21T21:56:28.317Z,99599.75
2022-11-21T22:01:57.557Z,99596.78
2022-11-21T22:04:24.015Z,99597.81
2022-11-21T22:06:50.504Z,99586.97
2022-11-21T22:09:16.981Z,99593.28
2022-11-21T22:11:43.552Z,99574.25
2022-11-21T22:14:15.243Z,99574.94
2022-11-21T22:16:42.461Z,99570.13
2022-11-21T22:19:09.705Z,99566.94
2022-11-21T22:21:37.593Z,99561.06
2022-11-21T22:24:25.446Z,99567.31
2022-11-21T22:26:53.512Z,99561.38
2022-11-21T22:29:19.894Z,99555.47
2022-11-21T22:31:46.318Z,99545.25
2022-11-21T22:34:15.644Z,99530.50
2022-11-21T22:36:42.885Z,99545.25
2022-11-21T22:39:09.273Z,99525.41
2022-11-21T22:41:35.953Z,99528.81
2022-11-21T22:44:02.670Z,99511.47
2022-11-21T22:46:30.129Z,99513.28
2022-11-21T22:48:57.043Z,99505.81
2022-11-21T22:51:26.891Z,99510.84
2022-11-21T22:53:53.340Z,99507.53
2022-11-21T22:56:21.537Z,99503.41
2022-11-21T22:58:48.027Z,99502.72
2022-11-21T23:01:16.823Z,99497.34
2022-11-21T23:03:43.555Z,99499.59
2022-11-21T23:06:12.749Z,99500.41
2022-11-21T23:08:39.898Z,99500.47
2022-11-21T23:11:16.590Z,99502.94
2022-11-21T23:13:44.547Z,99504.81
2022-11-21T23:16:12.187Z,99497.66
2022-11-21T23:18:39.113Z,99497.22
2022-11-21T23:21:06.005Z,99488.25
2022-11-21T23:23:32.626Z,99489.41
2022-11-21T23:25:59.403Z,99494.13
2022-11-21T23:28:25.926Z,99491.09
2022-11-21T23:30:52.413Z,99480.38
2022-11-21T23:33:19.151Z,99481.00
2022-11-21T23:35:46.308Z,99481.47
2022-11-21T23:38:14.295Z,99470.09
2022-11-21T23:40:41.133Z,99461.91
2022-11-21T23:43:07.679Z,99471.00
2022-11-21T23:45:34.442Z,99470.41
2022-11-21T23:48:00.933Z,99477.19
2022-11-21T23:50:27.450Z,99467.38
2022-11-21T23:52:54.011Z,99471.47
2022-11-21T23:55:20.468Z,99467.81
2022-11-21T23:57:48.310Z,99466.91
